Shin Chun — VRFD2 — position and weather

sailwx.info

Track history (hours):
 
Tides and Currents Weather Stations Pressure Air Temp Water Temp Dewpoint Dewpoint Depression Visibility Wind Speed Wind Dir Waves Ship Positions

Shin Chun

Last reported at 2015-Apr-21 12:33 UTC. Time now 2015-Apr-21 13:12 UTC.
Position N 24°24' E 118°07'.

Length 152 m; draft 6.3 m.

Type: Cargo ship. MMSI: 477218300.

Date/timePositionNaut miles runAvg speedWind from/ knotsBaromVisibWave heightAir tempDewpointWater temp
2015-Apr-21 12:33N 24°24' E 118°07'0 0.1
2015-Apr-21 11:33N 24°24' E 118°07'0 0.0
2015-Apr-21 10:33N 24°24' E 118°07'0 0.0
2015-Apr-21 09:33N 24°24' E 118°07'0 0.0
2015-Apr-21 08:33N 24°24' E 118°07'0 0.0
2015-Apr-21 07:32N 24°24' E 118°07'0 0.1
2015-Apr-21 06:33N 24°24' E 118°07'0 0.1
2015-Apr-21 05:33N 24°24' E 118°07'0 0.0
2015-Apr-21 04:33N 24°24' E 118°07'0 0.1
2015-Apr-21 03:32N 24°24' E 118°07'1110.8
2015-Apr-21 02:33N 24°21' E 118°18'1814.3
2015-Apr-21 01:18N 24°22' E 118°38'1414.2
2015-Apr-21 00:21N 24°25' E 118°53'1314.3
2015-Apr-20 23:26N 24°30' E 119°06'1213.8
2015-Apr-20 22:33N 24°34' E 119°18'74 2.1
2015-Apr-19 10:31N 23°28' E 119°55'1616.9
2015-Apr-19 09:33N 23°11' E 119°55'1514.7
2015-Apr-19 08:32N 22°57' E 119°58'1414.6
2015-Apr-19 07:34N 22°45' E 120°07'1312.5
2015-Apr-19 06:34N 22°37' E 120°17'3 2.5
2015-Apr-19 05:31N 22°35' E 120°18'0 0.0
2015-Apr-19 04:28N 22°35' E 120°18'0 0.0
2015-Apr-19 03:31N 22°35' E 120°18'0 0.0
2015-Apr-19 02:31N 22°35' E 120°18'0 0.0
2015-Apr-19 01:23N 22°35' E 120°18'0 0.0
2015-Apr-19 00:31N 22°35' E 120°18'3 3.2
2015-Apr-18 23:34N 22°37' E 120°16'3 3.2
2015-Apr-18 22:31N 22°37' E 120°12'0 0.0
2015-Apr-18 21:28N 22°37' E 120°12'0 0.1
2015-Apr-18 20:31N 22°37' E 120°12'0 0.0
2015-Apr-18 19:31N 22°37' E 120°12'0 0.1
2015-Apr-18 18:31N 22°37' E 120°12'0 0.0
2015-Apr-18 17:28N 22°37' E 120°12'1 0.9
2015-Apr-18 16:34N 22°37' E 120°12'1413.7
2015-Apr-18 15:34N 22°45' E 119°60'1413.9
2015-Apr-18 14:33N 22°53' E 119°47'1613.9
2015-Apr-18 13:24N 23°02' E 119°33'9012.9
2015-Apr-18 06:24N 24°07' E 118°24'1214.5
2015-Apr-18 05:33N 24°16' E 118°15'1413.7
2015-Apr-18 04:31N 24°26' E 118°03'5 5.4
2015-Apr-18 03:33N 24°31' E 118°05'0 0.0
2015-Apr-18 02:27N 24°31' E 118°05'0 0.1
2015-Apr-18 01:33N 24°31' E 118°05'0 0.1
2015-Apr-18 00:30N 24°31' E 118°05'0 0.0
2015-Apr-17 23:30N 24°31' E 118°05'0 0.1
2015-Apr-17 22:32N 24°31' E 118°05'0 0.1
2015-Apr-17 21:29N 24°31' E 118°05'0 0.1
2015-Apr-17 20:32N 24°31' E 118°05'0 0.1
2015-Apr-17 19:29N 24°31' E 118°05'0 0.0
2015-Apr-17 18:32N 24°31' E 118°05'0 0.0
2015-Apr-17 17:26N 24°31' E 118°05'0 0.0
2015-Apr-17 16:29N 24°31' E 118°05'0 0.0
2015-Apr-17 15:32N 24°31' E 118°05'0 0.0
2015-Apr-17 14:32N 24°31' E 118°05'0 0.0
2015-Apr-17 13:32N 24°31' E 118°05'0 0.0
2015-Apr-17 12:29N 24°31' E 118°05'0 0.0
2015-Apr-17 11:29N 24°31' E 118°05'0 0.0
2015-Apr-17 10:29N 24°31' E 118°05'0 0.1
2015-Apr-17 09:33N 24°31' E 118°05'8 8.4
2015-Apr-17 08:32N 24°23' E 118°08'1212.5
2015-Apr-17 07:33N 24°20' E 118°21'1514.6
2015-Apr-17 06:31N 24°22' E 118°37'1414.6
2015-Apr-17 05:33N 24°25' E 118°52'1514.6
2015-Apr-17 04:33N 24°31' E 119°07'1414.1
2015-Apr-17 03:34N 24°36' E 119°21'2215.8
2015-Apr-17 02:11N 24°44' E 119°44'914.8
2015-Apr-17 01:34N 24°46' E 119°53'1414.0
2015-Apr-17 00:33N 24°52' E 120°08'1514.6
2015-Apr-16 23:30N 24°58' E 120°23'1414.5
2015-Apr-16 22:33N 25°03' E 120°37'1514.1
2015-Apr-16 21:30N 25°08' E 120°53'140 5.4
2015-Apr-15 19:26N 22°57' E 120°00'1315.1
2015-Apr-15 18:33N 22°45' E 120°08'1312.6
2015-Apr-15 17:33N 22°36' E 120°17'2 1.9
2015-Apr-15 16:31N 22°35' E 120°18'0 0.0
2015-Apr-15 15:31N 22°35' E 120°18'0 0.0
2015-Apr-15 14:25N 22°35' E 120°18'0 0.0
2015-Apr-15 13:31N 22°35' E 120°18'0 0.0
2015-Apr-15 12:31N 22°35' E 120°18'0 0.0
2015-Apr-15 11:31N 22°35' E 120°18'0 0.0
2015-Apr-15 10:31N 22°35' E 120°18'0 0.0
2015-Apr-15 09:33N 22°35' E 120°18'7 6.8
2015-Apr-15 08:33N 22°38' E 120°12'2 2.3
2015-Apr-15 07:33N 22°39' E 120°10'5 5.1
2015-Apr-15 06:33N 22°44' E 120°09'1 1.3
2015-Apr-15 05:33N 22°42' E 120°09'1 1.2
2015-Apr-15 04:33N 22°41' E 120°09'1 1.2
2015-Apr-15 03:33N 22°40' E 120°08'10 9.9
2015-Apr-15 02:32N 22°49' E 120°03'10912.1
2015-Apr-14 17:33N 24°38' E 120°00'1313.1
2015-Apr-14 16:32N 24°52' E 120°01'1312.7
2015-Apr-14 15:32N 25°04' E 120°02'3812.5
2015-Apr-14 12:29N 25°42' E 119°58'2612.4
2015-Apr-14 10:24N 26°05' E 119°46'1010.6
2015-Apr-14 09:30N 26°08' E 119°35'9 9.4
2015-Apr-14 08:33N 26°01' E 119°29'1 0.9
2015-Apr-14 07:33N 26°00' E 119°29'0 0.0
2015-Apr-14 06:33N 26°00' E 119°29'0 0.0
2015-Apr-14 05:33N 26°00' E 119°29'0 0.0
2015-Apr-14 04:33N 26°00' E 119°29'0 0.0
2015-Apr-14 03:21N 26°00' E 119°29'0 0.0
2015-Apr-14 02:33N 26°00' E 119°29'0 0.0
2015-Apr-14 01:15N 26°00' E 119°29'0 0.0
2015-Apr-14 00:33N 26°00' E 119°29'0 0.0
2015-Apr-13 23:27N 26°00' E 119°29'3 3.4
2015-Apr-13 22:33N 26°03' E 119°30'10 9.9
2015-Apr-13 21:32N 26°06' E 119°41'1110.3
2015-Apr-13 20:30N 25°60' E 119°51'1313.7
2015-Apr-13 19:32N 25°49' E 119°59'97 3.6
2015-Apr-12 16:30N 24°14' E 120°20'1414.4
2015-Apr-12 15:33N 24°03' E 120°12'2713.4
2015-Apr-12 13:29N 23°39' E 119°56'1412.5
2015-Apr-12 12:23N 23°26' E 119°55'3412.1
2015-Apr-12 09:33N 22°52' E 120°00'1312.8
2015-Apr-12 08:33N 22°41' E 120°08'1111.3
2015-Apr-12 07:33N 22°33' E 120°17'0 0.2
2015-Apr-12 06:29N 22°33' E 120°17'0 0.0
2015-Apr-12 05:23N 22°33' E 120°17'0 0.0
2015-Apr-12 04:29N 22°33' E 120°17'0 0.0
2015-Apr-12 03:29N 22°33' E 120°17'0 0.0
2015-Apr-12 02:29N 22°33' E 120°17'0 0.0
2015-Apr-12 01:23N 22°33' E 120°17'0 0.0
2015-Apr-12 00:33N 22°33' E 120°17'3 2.5
2015-Apr-11 23:30N 22°33' E 120°20'0 0.0
2015-Apr-11 22:27N 22°33' E 120°20'0 0.0
2015-Apr-11 21:21N 22°33' E 120°20'0 0.0
2015-Apr-11 19:33N 22°33' E 120°20'0 0.0
2015-Apr-11 17:15N 22°33' E 120°20'0 0.0
2015-Apr-11 15:14N 22°33' E 120°20'0 0.0
2015-Apr-11 14:10N 22°33' E 120°20'3 5.5
2015-Apr-11 13:33N 22°32' E 120°16'1 0.5
2015-Apr-11 12:33N 22°32' E 120°16'  
Track history (hours):
 
Tides and Currents Weather Stations Pressure Air Temp Water Temp Dewpoint Dewpoint Depression Visibility Wind Speed Wind Dir Waves Ship Positions

Shin Chun

Last reported at 2015-Apr-21 12:33 UTC. Time now 2015-Apr-21 13:12 UTC.
Position N 24°24' E 118°07'.

Length 152 m; draft 6.3 m.

Type: Cargo ship. MMSI: 477218300.

Date/timePositionNaut miles runAvg speedWind from/ knotsBaromVisibWave heightAir tempDewpointWater temp
2015-Apr-21 12:33N 24°24' E 118°07'0 0.1
2015-Apr-21 11:33N 24°24' E 118°07'0 0.0
2015-Apr-21 10:33N 24°24' E 118°07'0 0.0
2015-Apr-21 09:33N 24°24' E 118°07'0 0.0
2015-Apr-21 08:33N 24°24' E 118°07'0 0.0
2015-Apr-21 07:32N 24°24' E 118°07'0 0.1
2015-Apr-21 06:33N 24°24' E 118°07'0 0.1
2015-Apr-21 05:33N 24°24' E 118°07'0 0.0
2015-Apr-21 04:33N 24°24' E 118°07'0 0.1
2015-Apr-21 03:32N 24°24' E 118°07'1110.8
2015-Apr-21 02:33N 24°21' E 118°18'1814.3
2015-Apr-21 01:18N 24°22' E 118°38'1414.2
2015-Apr-21 00:21N 24°25' E 118°53'1314.3
2015-Apr-20 23:26N 24°30' E 119°06'1213.8
2015-Apr-20 22:33N 24°34' E 119°18'74 2.1
2015-Apr-19 10:31N 23°28' E 119°55'1616.9
2015-Apr-19 09:33N 23°11' E 119°55'1514.7
2015-Apr-19 08:32N 22°57' E 119°58'1414.6
2015-Apr-19 07:34N 22°45' E 120°07'1312.5
2015-Apr-19 06:34N 22°37' E 120°17'3 2.5
2015-Apr-19 05:31N 22°35' E 120°18'0 0.0
2015-Apr-19 04:28N 22°35' E 120°18'0 0.0
2015-Apr-19 03:31N 22°35' E 120°18'0 0.0
2015-Apr-19 02:31N 22°35' E 120°18'0 0.0
2015-Apr-19 01:23N 22°35' E 120°18'0 0.0
2015-Apr-19 00:31N 22°35' E 120°18'3 3.2
2015-Apr-18 23:34N 22°37' E 120°16'3 3.2
2015-Apr-18 22:31N 22°37' E 120°12'0 0.0
2015-Apr-18 21:28N 22°37' E 120°12'0 0.1
2015-Apr-18 20:31N 22°37' E 120°12'0 0.0
2015-Apr-18 19:31N 22°37' E 120°12'0 0.1
2015-Apr-18 18:31N 22°37' E 120°12'0 0.0
2015-Apr-18 17:28N 22°37' E 120°12'1 0.9
2015-Apr-18 16:34N 22°37' E 120°12'1413.7
2015-Apr-18 15:34N 22°45' E 119°60'1413.9
2015-Apr-18 14:33N 22°53' E 119°47'1613.9
2015-Apr-18 13:24N 23°02' E 119°33'9012.9
2015-Apr-18 06:24N 24°07' E 118°24'1214.5
2015-Apr-18 05:33N 24°16' E 118°15'1413.7
2015-Apr-18 04:31N 24°26' E 118°03'5 5.4
2015-Apr-18 03:33N 24°31' E 118°05'0 0.0
2015-Apr-18 02:27N 24°31' E 118°05'0 0.1
2015-Apr-18 01:33N 24°31' E 118°05'0 0.1
2015-Apr-18 00:30N 24°31' E 118°05'0 0.0
2015-Apr-17 23:30N 24°31' E 118°05'0 0.1
2015-Apr-17 22:32N 24°31' E 118°05'0 0.1
2015-Apr-17 21:29N 24°31' E 118°05'0 0.1
2015-Apr-17 20:32N 24°31' E 118°05'0 0.1
2015-Apr-17 19:29N 24°31' E 118°05'0 0.0
2015-Apr-17 18:32N 24°31' E 118°05'0 0.0
2015-Apr-17 17:26N 24°31' E 118°05'0 0.0
2015-Apr-17 16:29N 24°31' E 118°05'0 0.0
2015-Apr-17 15:32N 24°31' E 118°05'0 0.0
2015-Apr-17 14:32N 24°31' E 118°05'0 0.0
2015-Apr-17 13:32N 24°31' E 118°05'0 0.0
2015-Apr-17 12:29N 24°31' E 118°05'0 0.0
2015-Apr-17 11:29N 24°31' E 118°05'0 0.0
2015-Apr-17 10:29N 24°31' E 118°05'0 0.1
2015-Apr-17 09:33N 24°31' E 118°05'8 8.4
2015-Apr-17 08:32N 24°23' E 118°08'1212.5
2015-Apr-17 07:33N 24°20' E 118°21'1514.6
2015-Apr-17 06:31N 24°22' E 118°37'1414.6
2015-Apr-17 05:33N 24°25' E 118°52'1514.6
2015-Apr-17 04:33N 24°31' E 119°07'1414.1
2015-Apr-17 03:34N 24°36' E 119°21'2215.8
2015-Apr-17 02:11N 24°44' E 119°44'914.8
2015-Apr-17 01:34N 24°46' E 119°53'1414.0
2015-Apr-17 00:33N 24°52' E 120°08'1514.6
2015-Apr-16 23:30N 24°58' E 120°23'1414.5
2015-Apr-16 22:33N 25°03' E 120°37'1514.1
2015-Apr-16 21:30N 25°08' E 120°53'140 5.4
2015-Apr-15 19:26N 22°57' E 120°00'1315.1
2015-Apr-15 18:33N 22°45' E 120°08'1312.6
2015-Apr-15 17:33N 22°36' E 120°17'2 1.9
2015-Apr-15 16:31N 22°35' E 120°18'0 0.0
2015-Apr-15 15:31N 22°35' E 120°18'0 0.0
2015-Apr-15 14:25N 22°35' E 120°18'0 0.0
2015-Apr-15 13:31N 22°35' E 120°18'0 0.0
2015-Apr-15 12:31N 22°35' E 120°18'0 0.0
2015-Apr-15 11:31N 22°35' E 120°18'0 0.0
2015-Apr-15 10:31N 22°35' E 120°18'0 0.0
2015-Apr-15 09:33N 22°35' E 120°18'7 6.8
2015-Apr-15 08:33N 22°38' E 120°12'2 2.3
2015-Apr-15 07:33N 22°39' E 120°10'5 5.1
2015-Apr-15 06:33N 22°44' E 120°09'1 1.3
2015-Apr-15 05:33N 22°42' E 120°09'1 1.2
2015-Apr-15 04:33N 22°41' E 120°09'1 1.2
2015-Apr-15 03:33N 22°40' E 120°08'10 9.9
2015-Apr-15 02:32N 22°49' E 120°03'10912.1
2015-Apr-14 17:33N 24°38' E 120°00'1313.1
2015-Apr-14 16:32N 24°52' E 120°01'1312.7
2015-Apr-14 15:32N 25°04' E 120°02'3812.5
2015-Apr-14 12:29N 25°42' E 119°58'2612.4
2015-Apr-14 10:24N 26°05' E 119°46'1010.6
2015-Apr-14 09:30N 26°08' E 119°35'9 9.4
2015-Apr-14 08:33N 26°01' E 119°29'1 0.9
2015-Apr-14 07:33N 26°00' E 119°29'0 0.0
2015-Apr-14 06:33N 26°00' E 119°29'0 0.0
2015-Apr-14 05:33N 26°00' E 119°29'0 0.0
2015-Apr-14 04:33N 26°00' E 119°29'0 0.0
2015-Apr-14 03:21N 26°00' E 119°29'0 0.0
2015-Apr-14 02:33N 26°00' E 119°29'0 0.0
2015-Apr-14 01:15N 26°00' E 119°29'0 0.0
2015-Apr-14 00:33N 26°00' E 119°29'0 0.0
2015-Apr-13 23:27N 26°00' E 119°29'3 3.4
2015-Apr-13 22:33N 26°03' E 119°30'10 9.9
2015-Apr-13 21:32N 26°06' E 119°41'1110.3
2015-Apr-13 20:30N 25°60' E 119°51'1313.7
2015-Apr-13 19:32N 25°49' E 119°59'97 3.6
2015-Apr-12 16:30N 24°14' E 120°20'1414.4
2015-Apr-12 15:33N 24°03' E 120°12'2713.4
2015-Apr-12 13:29N 23°39' E 119°56'1412.5
2015-Apr-12 12:23N 23°26' E 119°55'3412.1
2015-Apr-12 09:33N 22°52' E 120°00'1312.8
2015-Apr-12 08:33N 22°41' E 120°08'1111.3
2015-Apr-12 07:33N 22°33' E 120°17'0 0.2
2015-Apr-12 06:29N 22°33' E 120°17'0 0.0
2015-Apr-12 05:23N 22°33' E 120°17'0 0.0
2015-Apr-12 04:29N 22°33' E 120°17'0 0.0
2015-Apr-12 03:29N 22°33' E 120°17'0 0.0
2015-Apr-12 02:29N 22°33' E 120°17'0 0.0
2015-Apr-12 01:23N 22°33' E 120°17'0 0.0
2015-Apr-12 00:33N 22°33' E 120°17'3 2.5
2015-Apr-11 23:30N 22°33' E 120°20'0 0.0
2015-Apr-11 22:27N 22°33' E 120°20'0 0.0
2015-Apr-11 21:21N 22°33' E 120°20'0 0.0
2015-Apr-11 19:33N 22°33' E 120°20'0 0.0
2015-Apr-11 17:15N 22°33' E 120°20'0 0.0
2015-Apr-11 15:14N 22°33' E 120°20'0 0.0
2015-Apr-11 14:10N 22°33' E 120°20'3 5.5
2015-Apr-11 13:33N 22°32' E 120°16'1 0.5
2015-Apr-11 12:33N 22°32' E 120°16'  

Dump ship's entire track history